createdAt,value
2023-02-13T00:01:22.831Z,23.63
2023-02-13T00:03:50.102Z,22.43
2023-02-13T00:06:17.342Z,24.42
2023-02-13T00:08:44.551Z,22.92
2023-02-13T00:11:13.422Z,25.13
2023-02-13T00:13:40.667Z,24.35
2023-02-13T00:16:08.135Z,18.87
2023-02-13T00:18:37.655Z,15.20
2023-02-13T00:21:07.262Z,19.35
2023-02-13T00:23:35.508Z,16.33
2023-02-13T00:26:07.128Z,15.55
2023-02-13T00:28:35.931Z,16.77
2023-02-13T00:31:05.965Z,13.43
2023-02-13T00:33:33.731Z,15.15
2023-02-13T00:36:06.187Z,15.23
2023-02-13T00:38:33.543Z,12.80
2023-02-13T00:41:00.722Z,11.07
2023-02-13T00:43:28.534Z,12.15
2023-02-13T00:45:58.741Z,12.18
2023-02-13T00:48:26.597Z,12.88
2023-02-13T00:50:54.255Z,12.00
2023-02-13T00:53:22.585Z,13.17
2023-02-13T00:55:50.224Z,10.63
2023-02-13T00:58:18.474Z,10.98
2023-02-13T01:00:47.252Z,11.40
2023-02-13T01:03:16.848Z,11.95
2023-02-13T01:05:47.053Z,10.30
2023-02-13T01:08:16.010Z,12.85
2023-02-13T01:10:44.616Z,8.73
2023-02-13T01:13:14.829Z,8.90
2023-02-13T01:15:42.632Z,8.65
2023-02-13T01:18:12.362Z,8.47
2023-02-13T01:20:41.052Z,7.15
2023-02-13T01:23:08.226Z,7.90
2023-02-13T01:25:35.585Z,8.07
2023-02-13T01:28:02.945Z,7.10
2023-02-13T01:30:30.222Z,6.17
2023-02-13T01:32:57.441Z,6.10
2023-02-13T01:35:24.618Z,6.97
2023-02-13T01:37:53.175Z,6.15
2023-02-13T01:40:20.630Z,8.05
2023-02-13T01:42:47.783Z,5.73
2023-02-13T01:45:23.630Z,5.50
2023-02-13T01:47:55.775Z,6.18
2023-02-13T01:50:30.849Z,6.78
2023-02-13T01:53:04.955Z,6.07
2023-02-13T01:55:34.256Z,7.70
2023-02-13T01:58:06.806Z,5.47
2023-02-13T02:00:35.466Z,5.90
2023-02-13T02:03:07.324Z,5.40
2023-02-13T02:05:36.341Z,6.22
2023-02-13T02:08:08.948Z,5.63
2023-02-13T02:10:37.878Z,6.85
2023-02-13T02:13:11.053Z,6.35
2023-02-13T02:15:41.716Z,7.25
2023-02-13T02:18:14.561Z,8.48
2023-02-13T02:21:10.783Z,6.30
2023-02-13T02:24:15.751Z,7.50
2023-02-13T02:27:05.566Z,10.40
2023-02-13T02:30:10.694Z,7.40
2023-02-13T02:32:56.949Z,6.95
2023-02-13T02:35:34.457Z,8.67
2023-02-13T02:38:10.374Z,7.32
2023-02-13T02:40:49.775Z,8.57
2023-02-13T02:43:29.501Z,6.90
2023-02-13T02:46:02.787Z,7.78
2023-02-13T02:48:57.192Z,8.27
2023-02-13T02:51:30.603Z,8.27
2023-02-13T02:54:27.702Z,8.55
2023-02-13T02:57:01.432Z,6.55
2023-02-13T02:59:50.090Z,8.95
2023-02-13T03:02:37.073Z,9.13
2023-02-13T03:05:36.537Z,8.68
2023-02-13T03:08:04.763Z,8.02
2023-02-13T03:10:55.677Z,9.70
2023-02-13T03:13:38.877Z,8.30
2023-02-13T03:16:25.526Z,9.30
2023-02-13T03:19:14.805Z,8.57
2023-02-13T03:22:07.604Z,9.50
2023-02-13T03:24:45.954Z,9.82
2023-02-13T03:27:43.051Z,9.60
2023-02-13T03:30:21.566Z,9.23
2023-02-13T03:33:03.354Z,11.55
2023-02-13T03:35:56.372Z,11.43
2023-02-13T03:38:30.421Z,11.63
2023-02-13T03:41:18.872Z,11.07
2023-02-13T03:43:55.305Z,11.27
2023-02-13T03:46:24.444Z,11.35
2023-02-13T03:49:11.656Z,11.95
2023-02-13T03:51:43.871Z,10.57
2023-02-13T03:54:19.595Z,10.18
2023-02-13T03:57:08.685Z,11.17
2023-02-13T03:59:37.425Z,10.77
2023-02-13T04:02:12.152Z,12.23
2023-02-13T04:04:48.063Z,10.68
2023-02-13T04:07:29.422Z,10.52
2023-02-13T04:10:00.386Z,9.87
2023-02-13T04:12:36.578Z,10.13
2023-02-13T04:15:11.372Z,10.93
2023-02-13T04:17:43.457Z,10.15
2023-02-13T04:20:12.160Z,10.35
2023-02-13T04:22:42.528Z,9.93
2023-02-13T04:25:12.866Z,9.02
2023-02-13T04:27:40.094Z,8.38
2023-02-13T04:30:09.133Z,10.32
2023-02-13T04:32:36.526Z,8.88
2023-02-13T04:35:04.041Z,10.93
2023-02-13T04:37:31.240Z,10.18
2023-02-13T04:39:58.405Z,10.50
2023-02-13T04:42:26.917Z,10.73
2023-02-13T04:44:54.097Z,11.45
2023-02-13T04:47:21.281Z,10.17
2023-02-13T04:49:48.456Z,11.63
2023-02-13T04:52:15.654Z,11.60
2023-02-13T04:54:42.906Z,10.73
2023-02-13T04:57:10.332Z,12.75
2023-02-13T04:59:38.896Z,12.37
2023-02-13T05:02:06.115Z,11.25
2023-02-13T05:04:33.697Z,12.95
2023-02-13T05:07:00.926Z,12.55
2023-02-13T05:09:28.288Z,10.90
2023-02-13T05:11:55.637Z,10.97
2023-02-13T05:14:22.911Z,10.70
2023-02-13T05:16:51.449Z,9.93
2023-02-13T05:19:18.649Z,11.85
2023-02-13T05:22:04.858Z,10.43
2023-02-13T05:24:32.178Z,10.70
2023-02-13T05:26:59.388Z,11.07
2023-02-13T05:29:26.624Z,12.20
2023-02-13T05:31:57.507Z,10.50
2023-02-13T05:34:26.148Z,9.68
2023-02-13T05:36:53.676Z,10.33
2023-02-13T05:39:20.955Z,9.25
2023-02-13T05:41:49.363Z,9.88
2023-02-13T05:44:17.033Z,10.25
2023-02-13T05:46:45.109Z,11.75
2023-02-13T05:49:15.053Z,9.47
2023-02-13T05:51:42.653Z,10.23
2023-02-13T05:54:09.831Z,8.95
2023-02-13T05:56:37.049Z,12.30
2023-02-13T05:59:04.590Z,11.25
2023-02-13T06:01:31.816Z,9.40
2023-02-13T06:04:00.457Z,10.75
2023-02-13T06:06:30.010Z,11.77
2023-02-13T06:08:57.357Z,9.57
2023-02-13T06:11:24.593Z,9.40
2023-02-13T06:13:51.783Z,9.37
2023-02-13T06:16:18.995Z,9.55
2023-02-13T06:18:46.209Z,10.25
2023-02-13T06:21:13.392Z,9.75
2023-02-13T06:23:41.890Z,8.77
2023-02-13T06:26:09.494Z,10.30
2023-02-13T06:28:36.998Z,9.73
2023-02-13T06:31:04.774Z,9.43
2023-02-13T06:33:32.106Z,9.85
2023-02-13T06:35:59.580Z,10.38
2023-02-13T06:38:27.208Z,10.20
2023-02-13T06:41:00.173Z,9.25
2023-02-13T06:43:27.519Z,10.00
2023-02-13T06:45:54.729Z,9.15
2023-02-13T06:48:21.961Z,10.43
2023-02-13T06:50:52.011Z,9.50
2023-02-13T06:53:24.465Z,8.88
2023-02-13T06:55:52.309Z,9.57
2023-02-13T06:58:21.902Z,11.77
2023-02-13T07:00:49.592Z,9.02
2023-02-13T07:03:16.992Z,8.93
2023-02-13T07:05:44.600Z,11.43
2023-02-13T07:08:13.099Z,8.90
2023-02-13T07:10:41.479Z,8.60
2023-02-13T07:13:09.624Z,9.18
2023-02-13T07:15:38.647Z,9.40
2023-02-13T07:18:06.248Z,9.27
2023-02-13T07:20:33.653Z,8.80
2023-02-13T07:23:02.094Z,8.93
2023-02-13T07:25:29.740Z,7.85
2023-02-13T07:28:01.254Z,10.50
2023-02-13T07:30:29.172Z,11.15
2023-02-13T07:32:59.984Z,9.45
2023-02-13T07:35:27.437Z,10.93
2023-02-13T07:37:55.356Z,11.80
2023-02-13T07:40:22.784Z,11.13
2023-02-13T07:42:50.023Z,10.38
2023-02-13T07:45:17.513Z,9.85
2023-02-13T07:47:44.709Z,11.15
2023-02-13T07:50:13.901Z,11.77
2023-02-13T07:52:41.078Z,12.67
2023-02-13T07:55:08.993Z,11.50
2023-02-13T07:57:36.222Z,10.38
2023-02-13T08:00:04.354Z,11.52
2023-02-13T08:02:38.896Z,9.45
2023-02-13T08:05:07.173Z,10.17
2023-02-13T08:07:35.805Z,12.15
2023-02-13T08:10:22.183Z,9.10
2023-02-13T08:12:49.440Z,9.85
2023-02-13T08:15:16.775Z,11.75
2023-02-13T08:17:44.121Z,12.73
2023-02-13T08:20:11.784Z,8.80
2023-02-13T08:22:40.317Z,10.90
2023-02-13T08:25:08.189Z,12.30
2023-02-13T08:27:35.518Z,10.80
2023-02-13T08:30:04.121Z,9.70
2023-02-13T08:32:35.420Z,10.93
2023-02-13T08:35:06.948Z,9.85
2023-02-13T08:37:34.171Z,10.23
2023-02-13T08:40:03.183Z,12.60
2023-02-13T08:42:31.378Z,12.43
2023-02-13T08:44:58.903Z,11.73
2023-02-13T08:47:26.849Z,11.57
2023-02-13T08:49:54.105Z,9.88
2023-02-13T08:52:21.291Z,10.77
2023-02-13T08:54:48.462Z,11.47
2023-02-13T08:57:16.982Z,11.63
2023-02-13T08:59:44.149Z,10.88
2023-02-13T09:02:12.200Z,12.75
2023-02-13T09:04:39.424Z,9.32
2023-02-13T09:07:06.867Z,10.97
2023-02-13T09:09:34.055Z,10.20
2023-02-13T09:12:01.282Z,9.85
2023-02-13T09:14:29.841Z,10.68
2023-02-13T09:16:57.155Z,10.15
2023-02-13T09:19:24.401Z,10.77
2023-02-13T09:21:51.608Z,10.23
2023-02-13T09:24:18.856Z,11.45
2023-02-13T09:26:46.053Z,13.95
2023-02-13T09:29:13.269Z,12.20
2023-02-13T09:31:41.867Z,11.47
2023-02-13T09:34:09.632Z,11.82
2023-02-13T09:36:36.826Z,14.15
2023-02-13T09:39:04.097Z,11.65
2023-02-13T09:41:36.078Z,10.68
2023-02-13T09:44:07.665Z,10.97
2023-02-13T09:46:37.814Z,13.55
2023-02-13T09:49:09.895Z,12.70
2023-02-13T09:51:37.287Z,13.07
2023-02-13T09:54:07.353Z,13.52
2023-02-13T09:56:49.454Z,13.20
2023-02-13T09:59:35.335Z,12.82
2023-02-13T10:02:18.775Z,14.48
2023-02-13T10:04:52.867Z,15.73
2023-02-13T10:07:25.080Z,14.38
2023-02-13T10:10:01.869Z,15.23
2023-02-13T10:12:50.653Z,15.38
2023-02-13T10:15:23.972Z,17.48
2023-02-13T10:17:56.369Z,16.65
2023-02-13T10:20:31.151Z,18.27
2023-02-13T10:23:08.121Z,18.63
2023-02-13T10:25:48.231Z,18.30
2023-02-13T10:28:22.469Z,15.48
2023-02-13T10:30:54.725Z,17.95
2023-02-13T10:33:28.614Z,17.88
2023-02-13T10:36:01.265Z,17.50
2023-02-13T10:38:31.906Z,17.80
2023-02-13T10:41:06.342Z,17.70
2023-02-13T10:43:40.726Z,15.65
2023-02-13T10:46:17.397Z,16.13
2023-02-13T10:48:58.825Z,13.43
2023-02-13T10:51:35.792Z,17.25
2023-02-13T10:54:27.413Z,17.83
2023-02-13T10:57:05.348Z,15.75
2023-02-13T10:59:47.505Z,14.43
2023-02-13T11:02:23.123Z,14.77
2023-02-13T11:04:52.661Z,11.88
2023-02-13T11:07:25.057Z,13.52
2023-02-13T11:09:55.853Z,15.82
2023-02-13T11:12:25.446Z,12.07
2023-02-13T11:14:57.954Z,12.63
2023-02-13T11:17:27.289Z,12.70
2023-02-13T11:19:56.372Z,14.35
2023-02-13T11:22:32.726Z,14.50
2023-02-13T11:25:03.154Z,17.35
2023-02-13T11:27:33.808Z,15.73
2023-02-13T11:30:04.044Z,16.63
2023-02-13T11:32:32.737Z,17.20
2023-02-13T11:35:26.160Z,15.55
2023-02-13T11:38:13.356Z,15.00
2023-02-13T11:40:44.359Z,18.43
2023-02-13T11:43:18.725Z,15.93
2023-02-13T11:45:46.195Z,16.55
2023-02-13T11:48:22.038Z,15.30
2023-02-13T11:50:53.764Z,15.23
2023-02-13T11:53:25.749Z,18.03
2023-02-13T11:56:06.266Z,18.00
2023-02-13T11:58:34.033Z,20.45
2023-02-13T12:01:25.245Z,17.77
2023-02-13T12:04:04.731Z,19.15
2023-02-13T12:06:39.515Z,18.43
2023-02-13T12:09:15.403Z,18.48
2023-02-13T12:11:45.887Z,19.23
2023-02-13T12:14:18.260Z,18.45
2023-02-13T12:16:50.547Z,21.55
2023-02-13T12:19:24.204Z,16.37
2023-02-13T12:22:15.014Z,18.70
2023-02-13T12:25:06.287Z,20.02
2023-02-13T12:27:42.940Z,21.00
2023-02-13T12:30:32.021Z,19.42
2023-02-13T12:33:07.419Z,19.23
2023-02-13T12:35:42.165Z,19.27
2023-02-13T12:38:23.003Z,20.65
2023-02-13T12:41:10.138Z,21.55
2023-02-13T12:44:05.310Z,19.55
2023-02-13T12:46:40.034Z,20.77
2023-02-13T12:49:23.983Z,20.60
2023-02-13T12:52:00.692Z,21.95
2023-02-13T12:54:40.117Z,19.65
2023-02-13T12:57:18.380Z,22.02
2023-02-13T12:59:58.827Z,17.50
2023-02-13T13:02:48.045Z,17.73
2023-02-13T13:05:27.368Z,21.20
2023-02-13T13:08:19.197Z,18.92
2023-02-13T13:10:54.844Z,16.08
2023-02-13T13:13:34.475Z,15.40
2023-02-13T13:16:09.138Z,18.92
2023-02-13T13:18:47.337Z,18.65
2023-02-13T13:21:25.312Z,22.45
2023-02-13T13:24:00.361Z,20.75
2023-02-13T13:26:37.009Z,21.53
2023-02-13T13:29:10.764Z,24.23
2023-02-13T13:31:38.919Z,21.63
2023-02-13T13:34:19.311Z,24.40
2023-02-13T13:36:51.210Z,20.10
2023-02-13T13:39:33.250Z,21.90
2023-02-13T13:42:09.725Z,19.65
2023-02-13T13:45:00.769Z,19.45
2023-02-13T13:47:46.139Z,19.55
2023-02-13T13:50:19.857Z,20.10
2023-02-13T13:53:05.780Z,17.70
2023-02-13T13:55:59.553Z,19.63
2023-02-13T13:58:34.236Z,23.08
2023-02-13T14:01:24.229Z,17.65
2023-02-13T14:03:52.571Z,20.95
2023-02-13T14:06:21.848Z,19.20
2023-02-13T14:09:22.569Z,20.98
2023-02-13T14:11:49.764Z,23.48
2023-02-13T14:14:50.843Z,20.05
2023-02-13T14:17:50.945Z,22.20
2023-02-13T14:20:26.986Z,21.97
2023-02-13T14:22:54.494Z,16.55
2023-02-13T14:25:24.958Z,19.77
2023-02-13T14:28:04.340Z,21.52
2023-02-13T14:30:34.454Z,21.35
2023-02-13T14:33:06.036Z,20.57
2023-02-13T14:35:35.402Z,20.63
2023-02-13T14:38:05.490Z,19.30
2023-02-13T14:40:54.500Z,22.73
2023-02-13T14:43:38.046Z,21.40
2023-02-13T14:46:18.117Z,18.73
2023-02-13T14:48:55.203Z,22.50
2023-02-13T14:51:30.583Z,19.90
2023-02-13T14:54:03.463Z,18.38
2023-02-13T14:56:31.702Z,20.95
2023-02-13T14:59:07.341Z,18.43
2023-02-13T15:01:40.043Z,22.83
2023-02-13T15:04:13.125Z,21.17
2023-02-13T15:06:43.261Z,18.75
2023-02-13T15:09:21.878Z,21.05
2023-02-13T15:11:49.786Z,20.77
2023-02-13T15:14:19.399Z,20.67
2023-02-13T15:16:50.582Z,19.98
2023-02-13T15:19:21.070Z,17.48
2023-02-13T15:21:55.247Z,22.13
2023-02-13T15:24:24.159Z,21.37
2023-02-13T15:26:55.145Z,22.95
2023-02-13T15:29:29.360Z,19.52
2023-02-13T15:32:00.481Z,24.95
2023-02-13T15:34:34.781Z,20.42
2023-02-13T15:37:03.035Z,23.57
2023-02-13T15:39:31.733Z,21.58
2023-02-13T15:42:01.398Z,22.35
2023-02-13T15:44:31.924Z,21.88
2023-02-13T15:47:06.384Z,20.27
2023-02-13T15:49:39.355Z,19.17
2023-02-13T15:52:13.300Z,18.25
2023-02-13T15:54:48.889Z,18.98
2023-02-13T15:57:17.251Z,19.65
2023-02-13T15:59:45.465Z,20.67
2023-02-13T16:02:18.087Z,18.83
2023-02-13T16:04:50.146Z,20.58
2023-02-13T16:07:17.449Z,20.08
2023-02-13T16:09:44.763Z,19.35
2023-02-13T16:12:21.032Z,20.98
2023-02-13T16:14:51.682Z,19.03
2023-02-13T16:17:26.088Z,20.85
2023-02-13T16:19:58.364Z,22.52
2023-02-13T16:22:32.729Z,19.27
2023-02-13T16:25:20.553Z,21.13
2023-02-13T16:27:49.825Z,20.83
2023-02-13T16:30:33.652Z,21.52
2023-02-13T16:33:21.019Z,17.98
2023-02-13T16:35:50.985Z,17.83
2023-02-13T16:38:43.333Z,20.73
2023-02-13T16:41:30.649Z,20.63
2023-02-13T16:43:59.779Z,21.13
2023-02-13T16:46:30.180Z,22.08
2023-02-13T16:49:19.963Z,21.38
2023-02-13T16:51:58.389Z,23.63
2023-02-13T16:54:38.125Z,22.60
2023-02-13T16:57:18.139Z,20.75
2023-02-13T17:00:08.704Z,23.25
2023-02-13T17:02:38.102Z,21.60
2023-02-13T17:05:21.908Z,18.40
2023-02-13T17:07:52.896Z,20.07
2023-02-13T17:10:23.420Z,20.48
2023-02-13T17:12:51.493Z,20.98
2023-02-13T17:15:21.215Z,22.48
2023-02-13T17:17:50.513Z,21.60
2023-02-13T17:20:20.638Z,20.87
2023-02-13T17:22:51.340Z,21.20
2023-02-13T17:25:22.504Z,21.42
2023-02-13T17:27:50.684Z,22.08
2023-02-13T17:30:20.700Z,22.27
2023-02-13T17:32:49.426Z,21.77
2023-02-13T17:35:17.185Z,26.77
2023-02-13T17:37:44.764Z,25.48
2023-02-13T17:40:18.047Z,22.35
2023-02-13T17:42:47.076Z,31.92
2023-02-13T17:45:15.969Z,30.87
2023-02-13T17:47:43.175Z,24.25
2023-02-13T17:50:12.088Z,21.00
2023-02-13T17:52:40.147Z,20.70
2023-02-13T17:55:17.076Z,25.83
2023-02-13T17:57:44.816Z,24.57
2023-02-13T18:00:12.415Z,24.55
2023-02-13T18:02:39.704Z,23.92
2023-02-13T18:05:07.571Z,23.73
2023-02-13T18:07:34.936Z,22.92
2023-02-13T18:10:02.591Z,25.87
2023-02-13T18:12:31.114Z,25.27
2023-02-13T18:14:58.302Z,22.88
2023-02-13T18:17:25.514Z,24.25
2023-02-13T18:19:52.788Z,25.15
2023-02-13T18:22:20.122Z,23.80
2023-02-13T18:24:47.601Z,21.27
2023-02-13T18:27:14.790Z,24.13
2023-02-13T18:29:43.387Z,23.92
2023-02-13T18:32:11.892Z,25.33
2023-02-13T18:34:39.460Z,26.53
2023-02-13T18:37:07.512Z,25.55
2023-02-13T18:39:35.063Z,22.73
2023-02-13T18:42:02.659Z,22.73
2023-02-13T18:44:30.025Z,28.20
2023-02-13T18:46:59.118Z,25.63
2023-02-13T18:49:26.352Z,22.95
2023-02-13T18:51:53.696Z,26.23
2023-02-13T18:54:21.444Z,24.33
2023-02-13T18:56:48.732Z,24.17
2023-02-13T18:59:16.166Z,23.97
2023-02-13T19:01:43.910Z,23.40
2023-02-13T19:04:12.530Z,23.77
2023-02-13T19:06:41.174Z,23.85
2023-02-13T19:09:08.790Z,26.20
2023-02-13T19:11:38.274Z,28.37
2023-02-13T19:14:06.199Z,25.45
2023-02-13T19:16:35.424Z,21.35
2023-02-13T19:19:05.155Z,27.67
2023-02-13T19:21:36.821Z,26.23
2023-02-13T19:24:06.308Z,27.80
2023-02-13T19:26:33.683Z,26.17
2023-02-13T19:29:00.872Z,23.42
2023-02-13T19:31:30.198Z,26.75
2023-02-13T19:33:59.381Z,25.95
2023-02-13T19:36:28.179Z,25.90
2023-02-13T19:38:58.205Z,24.98
2023-02-13T19:41:26.000Z,27.10
2023-02-13T19:43:55.945Z,26.67
2023-02-13T19:46:25.114Z,24.85
2023-02-13T19:48:52.714Z,24.07
2023-02-13T19:51:22.383Z,24.27
2023-02-13T19:53:49.648Z,24.00
2023-02-13T19:56:18.182Z,29.63
2023-02-13T19:58:45.410Z,27.08
2023-02-13T20:01:14.308Z,27.13
2023-02-13T20:03:42.370Z,25.88
2023-02-13T20:06:11.757Z,25.77
2023-02-13T20:08:41.362Z,24.60
2023-02-13T20:11:11.236Z,25.23
2023-02-13T20:13:40.397Z,26.97
2023-02-13T20:16:09.870Z,25.00
2023-02-13T20:18:38.244Z,26.13
2023-02-13T20:21:06.234Z,26.27
2023-02-13T20:23:33.635Z,27.90
2023-02-13T20:26:04.209Z,26.57
2023-02-13T20:28:31.680Z,30.70
2023-02-13T20:31:00.833Z,27.90
2023-02-13T20:33:28.350Z,26.63
2023-02-13T20:35:55.941Z,28.60
2023-02-13T20:38:23.130Z,27.27
2023-02-13T20:40:50.362Z,27.85
2023-02-13T20:43:17.605Z,31.50
2023-02-13T20:45:44.811Z,32.55
2023-02-13T20:48:13.302Z,27.98
2023-02-13T20:50:40.577Z,29.30
2023-02-13T20:53:09.949Z,27.92
2023-02-13T20:55:37.293Z,26.15
2023-02-13T20:58:04.477Z,25.60
2023-02-13T21:00:31.752Z,28.10
2023-02-13T21:02:58.992Z,31.77
2023-02-13T21:05:27.585Z,30.83
2023-02-13T21:07:54.745Z,28.63
2023-02-13T21:10:22.431Z,28.13
2023-02-13T21:12:49.671Z,28.48
2023-02-13T21:15:18.699Z,28.77
2023-02-13T21:17:45.958Z,24.45
2023-02-13T21:20:13.184Z,28.58
2023-02-13T21:22:41.717Z,27.17
2023-02-13T21:25:08.932Z,28.13
2023-02-13T21:27:36.150Z,31.17
2023-02-13T21:30:04.021Z,27.05
2023-02-13T21:32:31.228Z,25.73
2023-02-13T21:34:58.421Z,28.95
2023-02-13T21:37:25.603Z,27.92
2023-02-13T21:39:54.176Z,29.93
2023-02-13T21:42:21.377Z,28.10
2023-02-13T21:44:48.605Z,26.50
2023-02-13T21:47:18.858Z,25.75
2023-02-13T21:49:47.465Z,24.30
2023-02-13T21:52:14.733Z,25.63
2023-02-13T21:54:42.055Z,29.05
2023-02-13T21:57:10.557Z,25.55
2023-02-13T21:59:37.748Z,29.17
2023-02-13T22:02:05.064Z,29.60
2023-02-13T22:04:32.357Z,30.17
2023-02-13T22:06:59.574Z,29.88
2023-02-13T22:09:27.570Z,27.70
2023-02-13T22:11:55.168Z,27.33
2023-02-13T22:14:23.714Z,28.73
2023-02-13T22:16:52.173Z,32.53
2023-02-13T22:19:21.160Z,29.63
2023-02-13T22:21:48.759Z,29.17
2023-02-13T22:24:15.999Z,27.85
2023-02-13T22:26:45.217Z,28.08
2023-02-13T22:29:15.061Z,28.33
2023-02-13T22:31:44.319Z,27.38
2023-02-13T22:34:13.400Z,29.98
2023-02-13T22:36:41.439Z,28.08
2023-02-13T22:39:10.803Z,26.20
2023-02-13T22:41:38.352Z,30.20
2023-02-13T22:44:05.652Z,30.75
2023-02-13T22:46:34.249Z,28.65
2023-02-13T22:49:03.030Z,29.40
2023-02-13T22:51:32.968Z,28.90
2023-02-13T22:54:01.249Z,30.03
2023-02-13T22:56:30.611Z,32.13
2023-02-13T22:58:58.103Z,27.83
2023-02-13T23:01:27.150Z,29.42
2023-02-13T23:03:55.135Z,27.67
2023-02-13T23:06:24.709Z,30.20
2023-02-13T23:08:53.485Z,30.15
2023-02-13T23:11:40.920Z,28.67
2023-02-13T23:14:09.886Z,28.98
2023-02-13T23:16:56.962Z,29.88
2023-02-13T23:19:25.438Z,26.50
2023-02-13T23:21:54.055Z,29.20
2023-02-13T23:24:21.333Z,28.05
2023-02-13T23:26:48.529Z,27.17
2023-02-13T23:29:15.732Z,29.80
2023-02-13T23:31:42.985Z,30.03
2023-02-13T23:34:10.390Z,26.65
2023-02-13T23:36:37.647Z,30.23
2023-02-13T23:39:06.491Z,25.70
2023-02-13T23:41:33.682Z,24.23
2023-02-13T23:44:01.086Z,26.77
2023-02-13T23:46:28.586Z,26.75
2023-02-13T23:48:55.926Z,28.40
2023-02-13T23:51:25.447Z,24.63
2023-02-13T23:53:55.901Z,28.27
2023-02-13T23:56:25.171Z,26.87
2023-02-13T23:58:52.946Z,27.10
